• Join FlightAware (Why Join?)
  • Login
  • US Flag 
07:25PM EDT


 

Airport Tracker/Info


-or-


 

Live Flight TrackerFlight Track Log ✈ UCA3599 ✈ 19-Mar-2014 ✈ KBGM - KIAD

Flight Track Log - Related Links

Times and Time Zones

All times are in EDT time to prevent confusion due to time zone crossing. See the UCA3599 flight status page for this flight to view local times or setup timezone preferences in your user account.

Time Position Orientation Groundspeed Altitude Reporting Facility
EDT Latitude Longitude Course Direction KTS MPH feet Rate Location/Type
06:32AM 42.1489 -76.0153 213° Southwest 136 157 4,800  Level New York Center
06:33AM 42.1164 -76.0436 213° Southwest 136 157 6,300 1,260 Climbing New York Center
06:34AM 42.0839 -76.0772 218° Southwest 141 162 7,400 1,200 Climbing New York Center
06:35AM 42.0403 -76.1211 217° Southwest 162 186 8,800 1,320 Climbing New York Center
06:36AM 41.9989 -76.1569 213° Southwest 178 205 10,100 1,200 Climbing New York Center
06:37AM 41.9564 -76.1786 201° Southwest 178 205 11,200 1,260 Climbing New York Center
06:38AM 41.9072 -76.2081 204° Southwest 178 205 12,700 1,320 Climbing New York Center
06:39AM 41.8600 -76.2375 205° Southwest 183 211 13,900 1,140 Climbing New York Center
06:40AM 41.8150 -76.2672 206° Southwest 183 211 15,000 960 Climbing New York Center
06:41AM 41.7742 -76.2944 206° Southwest 183 211 15,900 480 Climbing New York Center
06:42AM 41.7208 -76.3206 200° South 189 217 16,000  Climbing New York Center
06:43AM 41.6564 -76.3625 206° Southwest 216 249 16,000  Level New York Center
06:44AM 41.5983 -76.3992 205° Southwest 239 275 16,000  Level New York Center
06:45AM 41.5383 -76.4331 203° Southwest 239 275 16,000  Level New York Center
06:46AM 41.4847 -76.4672 206° Southwest 239 275 16,000  Level New York Center
06:47AM 41.4183 -76.5058 204° Southwest 244 281 16,000  Level New York Center
06:48AM 41.3581 -76.5450 206° Southwest 244 281 16,000  Level New York Center
06:49AM 41.3003 -76.5786 204° Southwest 244 281 16,000  Level New York Center
06:50AM 41.2444 -76.6125 205° Southwest 249 287 16,000  Level New York Center
06:51AM 41.1864 -76.6461 204° Southwest 243 280 16,000  Level New York Center
06:52AM 41.1197 -76.6900 206° Southwest 243 280 16,000  Level New York Center
06:53AM 41.0594 -76.7261 204° Southwest 243 280 16,000  Level New York Center
06:54AM 41.0014 -76.7622 205° Southwest 243 280 16,000  Level New York Center
06:55AM 40.9436 -76.7956 204° Southwest 243 280 16,000  Level New York Center
06:56AM 40.8853 -76.8317 205° Southwest 243 280 16,000  Level New York Center
06:57AM 40.8231 -76.8672 203° Southwest 243 280 16,000  Level New York Center
06:58AM 40.7633 -76.8975 201° Southwest 243 280 16,000  Level New York Center
06:59AM 40.6956 -76.9161 192° South 243 280 16,000  Level New York Center
07:00AM 40.6319 -76.9350 193° South 243 280 16,100  Climbing New York Center
07:01AM 40.5664 -76.9564 194° South 243 280 16,000 -60 Descending New York Center
07:02AM 40.5069 -76.9731 192° South 243 280 16,000  Level New York Center
07:03AM 40.4350 -76.9964 194° South 243 280 16,000  Level New York Center
07:04AM 40.3758 -77.0131 192° South 243 280 16,000 -480 Level New York Center
07:07AM 40.2000 -77.0667 193° South 257 296 14,500 -720 Descending Potomac TRACON
07:08AM 40.1167 -77.0833 189° South 262 302 13,400 -1,020 Descending Potomac TRACON
07:09AM 40.0667 -77.1167 207° Southwest 261 300 12,500 -1,020 Descending Potomac TRACON
07:10AM 39.9833 -77.1333 189° South 259 298 11,500 -1,020 Descending Potomac TRACON
07:11AM 39.9167 -77.1500 191° South 257 296 10,500 -1,200 Descending Potomac TRACON
07:12AM 39.8500 -77.1833 201° Southwest 233 268 9,100 -720 Descending Potomac TRACON
07:13AM 39.8000 -77.2000 194° South 191 220 9,100  Level Potomac TRACON
07:14AM 39.7500 -77.2167 194° South 198 228 9,100 -60 Level Potomac TRACON
07:15AM 39.7000 -77.2333 194° South 208 239 9,000 -60 Descending Potomac TRACON
07:16AM 39.6500 -77.2667 207° Southwest 210 242 9,000  Level Potomac TRACON
07:17AM 39.6000 -77.2833 194° South 211 243 9,000  Level Potomac TRACON
07:18AM 39.5333 -77.3000 191° South 212 244 9,000 -300 Level Potomac TRACON
07:19AM 39.4833 -77.3333 207° Southwest 209 241 8,400 -840 Descending Potomac TRACON
07:20AM 39.4333 -77.3500 194° South 220 253 7,400 -1,020 Descending Potomac TRACON
07:20AM 39.3833 -77.3667 194° South 222 255 6,600 -780 Descending Potomac TRACON
07:21AM 39.3167 -77.3667 180° South 218 251 6,000 -780 Descending Potomac TRACON
07:22AM 39.2500 -77.3667 180° South 216 249 5,100 -660 Descending Potomac TRACON
07:23AM 39.2000 -77.3667 180° South 208 239 4,800 -600 Descending Potomac TRACON
07:24AM 39.1500 -77.3500 166° South 219 252 4,000 -480 Descending Potomac TRACON
07:25AM 39.0833 -77.3667 191° South 213 245 4,000  Level Potomac TRACON
07:26AM 39.0333 -77.3500 165° South 213 245 4,000  Level Potomac TRACON
07:27AM 38.9833 -77.3500 180° South 212 244 4,000 -540 Level Potomac TRACON
07:28AM 38.9167 -77.3500 180° South 210 242 3,000 -960 Descending Potomac TRACON
07:29AM 38.8667 -77.3667 195° South 220 253 2,100 -540 Descending Potomac TRACON
07:30AM 38.8167 -77.3667 180° South 166 191 2,000 -60 Descending Potomac TRACON
07:31AM 38.7667 -77.3667 180° South 165 190 2,000  Level Potomac TRACON
07:32AM 38.7333 -77.3833 201° Southwest 188 216 2,000  Level Potomac TRACON
07:33AM 38.7833 -77.4333 322° Northwest 191 220 2,000  Level Potomac TRACON
07:34AM 38.8167 -77.4333 360° North 182 209 2,000 -240 Level Potomac TRACON
07:35AM 38.8667 -77.4333 360° North 141 162 1,600 -600 Descending Potomac TRACON
07:36AM 38.9000 -77.4333 360° North 105 121 900 -720 Descending Potomac TRACON